Time,TemperatureF,DewpointF,PressureIn,WindDirection,WindDirectionDegrees,WindSpeedMPH,WindSpeedGustMPH,Humidity,HourlyPrecipIn,Conditions,Clouds,dailyrainin,SoftwareType,DateUTC
2013-07-07 00:00:00,68.5,67.0,30.15,SW,223,0.0,-999.0,95,-99.99,,,0.54,weatherlink.com 1.10,2013-07-07 04:00:00,
2013-07-07 00:15:00,68.4,67.0,30.15,SW,223,0.0,-999.0,95,-99.99,,,0.01,weatherlink.com 1.10,2013-07-07 04:15:00,
2013-07-07 00:30:00,68.3,67.0,30.14,SW,223,0.0,-999.0,95,-99.99,,,0.01,weatherlink.com 1.10,2013-07-07 04:30:00,
2013-07-07 00:45:00,68.3,67.0,30.14,SW,219,0.0,-999.0,95,-99.99,,,0.02,weatherlink.com 1.10,2013-07-07 04:45:00,
2013-07-07 00:59:00,68.3,67.0,30.14,SW,219,2.0,-999.0,95,-99.99,,,0.02,weatherlink.com 1.10,2013-07-07 04:59:00,
2013-07-07 01:14:00,68.1,67.0,30.13,SSW,207,0.0,-999.0,95,-99.99,,,0.02,weatherlink.com 1.10,2013-07-07 05:14:00,
2013-07-07 01:29:00,67.9,67.0,30.12,SSW,207,0.0,-999.0,95,-99.99,,,0.03,weatherlink.com 1.10,2013-07-07 05:29:00,
2013-07-07 01:44:00,67.8,66.0,30.12,SSW,207,0.0,-999.0,95,-99.99,,,0.03,weatherlink.com 1.10,2013-07-07 05:44:00,
2013-07-07 01:59:00,67.8,66.0,30.12,SSW,207,0.0,-999.0,95,-99.99,,,0.03,weatherlink.com 1.10,2013-07-07 05:59:00,
2013-07-07 02:14:00,67.6,66.0,30.12,SSW,199,0.0,-999.0,95,-99.99,,,0.03,weatherlink.com 1.10,2013-07-07 06:14:00,
2013-07-07 02:29:00,67.6,66.0,30.11,SSW,199,0.0,-999.0,95,-99.99,,,0.03,weatherlink.com 1.10,2013-07-07 06:29:00,
2013-07-07 02:44:00,67.5,66.0,30.11,SSW,199,2.0,-999.0,95,-99.99,,,0.04,weatherlink.com 1.10,2013-07-07 06:44:00,
2013-07-07 02:59:00,67.4,66.0,30.11,SSW,199,0.0,-999.0,95,-99.99,,,0.05,weatherlink.com 1.10,2013-07-07 06:59:00,
2013-07-07 03:14:00,67.4,66.0,30.11,SSW,199,0.0,-999.0,96,-99.99,,,0.11,weatherlink.com 1.10,2013-07-07 07:14:00,
2013-07-07 03:29:00,67.3,66.0,30.09,SSW,199,0.0,-999.0,96,-99.99,,,0.16,weatherlink.com 1.10,2013-07-07 07:29:00,
2013-07-07 03:44:00,67.3,66.0,30.10,SSW,199,1.0,-999.0,96,-99.99,,,0.24,weatherlink.com 1.10,2013-07-07 07:44:00,
2013-07-07 03:59:00,67.3,66.0,30.10,SSW,199,1.0,-999.0,96,-99.99,,,0.25,weatherlink.com 1.10,2013-07-07 07:59:00,
2013-07-07 04:14:00,67.4,66.0,30.09,SSE,167,0.0,-999.0,96,-99.99,,,0.35,weatherlink.com 1.10,2013-07-07 08:14:00,
2013-07-07 04:29:00,67.4,66.0,30.09,SSE,167,0.0,-999.0,96,-99.99,,,0.39,weatherlink.com 1.10,2013-07-07 08:29:00,
2013-07-07 04:44:00,67.4,66.0,30.09,SSE,167,0.0,-999.0,96,-99.99,,,0.40,weatherlink.com 1.10,2013-07-07 08:44:00,
2013-07-07 05:00:00,67.3,66.0,30.09,SSE,167,0.0,-999.0,96,-99.99,,,0.40,weatherlink.com 1.10,2013-07-07 09:00:00,
2013-07-07 05:15:00,67.3,66.0,30.09,SSE,167,0.0,-999.0,96,-99.99,,,0.40,weatherlink.com 1.10,2013-07-07 09:15:00,
2013-07-07 05:30:00,67.3,66.0,30.09,SSE,167,0.0,-999.0,96,-99.99,,,0.40,weatherlink.com 1.10,2013-07-07 09:30:00,
2013-07-07 05:45:00,67.3,66.0,30.10,SSE,167,0.0,-999.0,96,-99.99,,,0.40,weatherlink.com 1.10,2013-07-07 09:45:00,
2013-07-07 06:00:00,67.3,66.0,30.10,North,-999,-999.0,-999.0,96,-99.99,,,0.40,weatherlink.com 1.10,2013-07-07 10:00:00,
2013-07-07 06:15:00,67.4,66.0,30.10,WSW,258,0.0,-999.0,96,-99.99,,,0.40,weatherlink.com 1.10,2013-07-07 10:15:00,
2013-07-07 06:30:00,67.4,66.0,30.10,SW,217,0.0,-999.0,96,-99.99,,,0.40,weatherlink.com 1.10,2013-07-07 10:30:00,
2013-07-07 06:45:00,67.4,66.0,30.10,SW,217,0.0,-999.0,96,-99.99,,,0.40,weatherlink.com 1.10,2013-07-07 10:45:00,
2013-07-07 07:00:00,67.6,67.0,30.11,SE,140,0.0,-999.0,96,-99.99,,,0.40,weatherlink.com 1.10,2013-07-07 11:00:00,
2013-07-07 07:15:00,67.9,67.0,30.12,SE,140,0.0,-999.0,96,-99.99,,,0.40,weatherlink.com 1.10,2013-07-07 11:15:00,
2013-07-07 07:30:00,68.2,67.0,30.12,SE,140,0.0,-999.0,96,-99.99,,,0.40,weatherlink.com 1.10,2013-07-07 11:30:00,
2013-07-07 07:45:00,68.5,67.0,30.12,SE,140,0.0,-999.0,96,-99.99,,,0.40,weatherlink.com 1.10,2013-07-07 11:45:00,
2013-07-07 07:59:00,68.5,67.0,30.12,SE,140,0.0,-999.0,96,-99.99,,,0.40,weatherlink.com 1.10,2013-07-07 11:59:00,
2013-07-07 08:14:00,69.0,68.0,30.14,SE,140,0.0,-999.0,96,-99.99,,,0.40,weatherlink.com 1.10,2013-07-07 12:14:00,
2013-07-07 08:29:00,69.3,68.0,30.14,SE,140,0.0,-999.0,96,-99.99,,,0.40,weatherlink.com 1.10,2013-07-07 12:29:00,
2013-07-07 08:44:00,69.6,69.0,30.14,SE,140,0.0,-999.0,96,-99.99,,,0.40,weatherlink.com 1.10,2013-07-07 12:44:00,
2013-07-07 09:00:00,69.6,69.0,30.14,North,-999,-999.0,-999.0,96,-99.99,,,0.40,weatherlink.com 1.10,2013-07-07 13:00:00,
2013-07-07 09:15:00,70.1,69.0,30.14,SE,140,0.0,-999.0,96,-99.99,,,0.40,weatherlink.com 1.10,2013-07-07 13:15:00,
2013-07-07 09:30:00,70.2,69.0,30.14,SSW,207,3.0,-999.0,96,-99.99,,,0.40,weatherlink.com 1.10,2013-07-07 13:30:00,
2013-07-07 09:45:00,70.6,69.0,30.15,SSW,192,3.0,-999.0,95,-99.99,,,0.40,weatherlink.com 1.10,2013-07-07 13:45:00,
2013-07-07 09:59:00,70.7,69.0,30.15,SSW,192,0.0,-999.0,95,-99.99,,,0.40,weatherlink.com 1.10,2013-07-07 13:59:00,
2013-07-07 10:15:00,71.1,69.0,30.15,SSW,203,3.0,-999.0,94,-99.99,,,0.40,weatherlink.com 1.10,2013-07-07 14:15:00,
2013-07-07 10:30:00,71.5,69.0,30.15,WSW,245,3.0,-999.0,93,-99.99,,,0.40,weatherlink.com 1.10,2013-07-07 14:30:00,
2013-07-07 10:45:00,71.6,70.0,30.15,WSW,242,5.0,-999.0,93,-99.99,,,0.40,weatherlink.com 1.10,2013-07-07 14:45:00,
2013-07-07 11:00:00,71.7,70.0,30.15,North,-999,-999.0,-999.0,93,-99.99,,,0.40,weatherlink.com 1.10,2013-07-07 15:00:00,
2013-07-07 11:15:00,71.9,70.0,30.15,WSW,249,4.0,-999.0,92,-99.99,,,0.40,weatherlink.com 1.10,2013-07-07 15:15:00,
2013-07-07 11:30:00,72.3,70.0,30.15,WSW,247,3.0,-999.0,92,-99.99,,,0.40,weatherlink.com 1.10,2013-07-07 15:30:00,
2013-07-07 11:46:00,72.6,70.0,30.15,WSW,246,3.0,-999.0,91,-99.99,,,0.40,weatherlink.com 1.10,2013-07-07 15:46:00,
2013-07-07 12:00:00,72.6,70.0,30.15,North,-999,-999.0,-999.0,91,-99.99,,,0.40,weatherlink.com 1.10,2013-07-07 16:00:00,
2013-07-07 12:16:00,74.0,71.0,30.15,SW,224,4.0,-999.0,89,-99.99,,,0.40,weatherlink.com 1.10,2013-07-07 16:16:00,
2013-07-07 12:31:00,75.4,71.0,30.15,SW,234,0.0,-999.0,86,-99.99,,,0.40,weatherlink.com 1.10,2013-07-07 16:31:00,
2013-07-07 12:46:00,76.5,70.0,30.14,West,261,6.0,-999.0,80,-99.99,,,0.40,weatherlink.com 1.10,2013-07-07 16:46:00,
2013-07-07 13:01:00,76.6,70.0,30.14,North,-999,-999.0,-999.0,79,-99.99,,,0.40,weatherlink.com 1.10,2013-07-07 17:01:00,
2013-07-07 13:16:00,77.6,69.0,30.14,WSW,252,3.0,-999.0,75,-99.99,,,0.40,weatherlink.com 1.10,2013-07-07 17:16:00,
2013-07-07 13:31:00,78.6,70.0,30.13,WSW,242,3.0,-999.0,74,-99.99,,,0.40,weatherlink.com 1.10,2013-07-07 17:31:00,
2013-07-07 13:46:00,79.3,70.0,30.13,WNW,296,5.0,-999.0,72,-99.99,,,0.40,weatherlink.com 1.10,2013-07-07 17:46:00,
2013-07-07 14:01:00,79.4,70.0,30.13,North,-999,-999.0,-999.0,74,-99.99,,,0.40,weatherlink.com 1.10,2013-07-07 18:01:00,
2013-07-07 14:16:00,80.1,70.0,30.13,West,273,3.0,-999.0,70,-99.99,,,0.40,weatherlink.com 1.10,2013-07-07 18:16:00,
2013-07-07 14:31:00,80.1,69.0,30.13,WNW,283,4.0,-999.0,69,-99.99,,,0.40,weatherlink.com 1.10,2013-07-07 18:31:00,
2013-07-07 14:46:00,80.7,68.0,30.12,West,261,1.0,-999.0,65,-99.99,,,0.40,weatherlink.com 1.10,2013-07-07 18:46:00,
2013-07-07 15:00:00,80.7,67.0,30.12,SW,225,5.0,-999.0,64,-99.99,,,0.40,weatherlink.com 1.10,2013-07-07 19:00:00,
2013-07-07 15:16:00,81.8,67.0,30.12,WSW,258,5.0,-999.0,61,-99.99,,,0.40,weatherlink.com 1.10,2013-07-07 19:16:00,
2013-07-07 15:31:00,81.1,68.0,30.11,West,278,3.0,-999.0,64,-99.99,,,0.40,weatherlink.com 1.10,2013-07-07 19:31:00,
2013-07-07 15:46:00,81.3,66.0,30.11,SE,136,6.0,-999.0,61,-99.99,,,0.40,weatherlink.com 1.10,2013-07-07 19:46:00,
2013-07-07 16:01:00,81.4,68.0,30.11,West,266,0.0,-999.0,63,-99.99,,,0.40,weatherlink.com 1.10,2013-07-07 20:01:00,
2013-07-07 16:16:00,82.3,68.0,30.10,WNW,294,4.0,-999.0,63,-99.99,,,0.40,weatherlink.com 1.10,2013-07-07 20:16:00,
2013-07-07 16:31:00,82.0,68.0,30.10,West,264,6.0,-999.0,62,-99.99,,,0.40,weatherlink.com 1.10,2013-07-07 20:31:00,
2013-07-07 16:46:00,81.4,68.0,30.09,WSW,239,2.0,-999.0,64,-99.99,,,0.40,weatherlink.com 1.10,2013-07-07 20:46:00,
2013-07-07 17:01:00,81.5,69.0,30.09,West,272,2.0,-999.0,66,-99.99,,,0.40,weatherlink.com 1.10,2013-07-07 21:01:00,
2013-07-07 17:16:00,81.0,69.0,30.08,West,265,3.0,-999.0,66,-99.99,,,0.40,weatherlink.com 1.10,2013-07-07 21:16:00,
2013-07-07 17:31:00,82.5,69.0,30.08,West,268,5.0,-999.0,63,-99.99,,,0.40,weatherlink.com 1.10,2013-07-07 21:31:00,
2013-07-07 17:46:00,82.5,69.0,30.08,West,276,4.0,-999.0,63,-99.99,,,0.40,weatherlink.com 1.10,2013-07-07 21:46:00,
2013-07-07 18:01:00,82.4,69.0,30.08,North,-999,-999.0,-999.0,63,-99.99,,,0.40,weatherlink.com 1.10,2013-07-07 22:01:00,
2013-07-07 18:16:00,80.9,71.0,30.08,WNW,287,0.0,-999.0,72,-99.99,,,0.40,weatherlink.com 1.10,2013-07-07 22:16:00,
2013-07-07 18:31:00,82.0,70.0,30.07,WNW,287,0.0,-999.0,68,-99.99,,,0.40,weatherlink.com 1.10,2013-07-07 22:31:00,
2013-07-07 18:46:00,81.7,69.0,30.07,WNW,287,1.0,-999.0,66,-99.99,,,0.40,weatherlink.com 1.10,2013-07-07 22:46:00,
2013-07-07 19:01:00,81.7,69.0,30.07,North,-999,-999.0,-999.0,66,-99.99,,,0.40,weatherlink.com 1.10,2013-07-07 23:01:00,
2013-07-07 19:16:00,82.3,70.0,30.08,West,271,3.0,-999.0,66,-99.99,,,0.40,weatherlink.com 1.10,2013-07-07 23:16:00,
2013-07-07 19:31:00,82.3,71.0,30.08,West,270,1.0,-999.0,68,-99.99,,,0.40,weatherlink.com 1.10,2013-07-07 23:31:00,
2013-07-07 19:46:00,82.1,71.0,30.08,West,271,0.0,-999.0,68,-99.99,,,0.40,weatherlink.com 1.10,2013-07-07 23:46:00,
2013-07-07 20:01:00,82.0,71.0,30.08,West,271,0.0,-999.0,69,-99.99,,,0.40,weatherlink.com 1.10,2013-07-08 00:01:00,
2013-07-07 20:16:00,81.1,73.0,30.09,West,271,0.0,-999.0,76,-99.99,,,0.40,weatherlink.com 1.10,2013-07-08 00:16:00,
2013-07-07 20:31:00,80.0,72.0,30.09,West,271,0.0,-999.0,76,-99.99,,,0.40,weatherlink.com 1.10,2013-07-08 00:31:00,
2013-07-07 20:46:00,78.0,71.0,30.10,West,271,0.0,-999.0,79,-99.99,,,0.40,weatherlink.com 1.10,2013-07-08 00:46:00,
2013-07-07 21:00:00,77.7,71.0,30.10,West,271,0.0,-999.0,80,-99.99,,,0.40,weatherlink.com 1.10,2013-07-08 01:00:00,
2013-07-07 21:15:00,74.1,70.0,30.11,West,271,0.0,-999.0,86,-99.99,,,0.40,weatherlink.com 1.10,2013-07-08 01:15:00,
2013-07-07 21:30:00,72.9,69.0,30.11,West,271,0.0,-999.0,87,-99.99,,,0.40,weatherlink.com 1.10,2013-07-08 01:30:00,
2013-07-07 21:45:00,71.9,69.0,30.11,West,271,0.0,-999.0,89,-99.99,,,0.40,weatherlink.com 1.10,2013-07-08 01:45:00,
2013-07-07 22:00:00,71.8,69.0,30.11,West,271,0.0,-999.0,89,-99.99,,,0.40,weatherlink.com 1.10,2013-07-08 02:00:00,
2013-07-07 22:15:00,70.4,67.0,30.13,West,271,0.0,-999.0,90,-99.99,,,0.40,weatherlink.com 1.10,2013-07-08 02:15:00,
2013-07-07 22:30:00,69.9,67.0,30.13,West,271,0.0,-999.0,91,-99.99,,,0.40,weatherlink.com 1.10,2013-07-08 02:30:00,
2013-07-07 22:45:00,69.5,67.0,30.13,West,271,0.0,-999.0,92,-99.99,,,0.40,weatherlink.com 1.10,2013-07-08 02:45:00,
2013-07-07 23:00:00,69.4,67.0,30.13,West,271,0.0,-999.0,92,-99.99,,,0.40,weatherlink.com 1.10,2013-07-08 03:00:00,
2013-07-07 23:15:00,69.0,67.0,30.13,West,271,0.0,-999.0,93,-99.99,,,0.40,weatherlink.com 1.10,2013-07-08 03:15:00,
2013-07-07 23:30:00,68.8,67.0,30.13,West,271,0.0,-999.0,93,-99.99,,,0.40,weatherlink.com 1.10,2013-07-08 03:30:00,
2013-07-07 23:45:00,68.6,67.0,30.13,West,271,0.0,-999.0,93,-99.99,,,0.40,weatherlink.com 1.10,2013-07-08 03:45:00,